Time;durP1;ratioP1;P1;durP2;ratioP2;P2;SDS_P1;SDS_P2;PMS_P1;PMS_P2;Temp;Humidity;BMP_temperature;BMP_pressure;BME280_temperature;BME280_humidity;BME280_pressure;Samples;Min_cycle;Max_cycle;Signal;HPM_P1;HPM_P2
2022/12/22 03:27:42;;;;;;;31.30;20.52;;;;;;;-0.79;84.83;99074.28;5108208;28;20051;-71
2022/12/22 03:30:10;;;;;;;32.53;21.00;;;;;;;-0.80;84.83;99070.81;5107938;28;20101;-71
2022/12/22 03:32:38;;;;;;;33.60;19.65;;;;;;;-0.80;84.69;99072.56;5107903;28;20117;-71
2022/12/22 03:35:06;;;;;;;32.00;18.98;;;;;;;-0.80;84.92;99059.53;5107652;28;20062;-74
2022/12/22 03:37:32;;;;;;;36.17;19.70;;;;;;;-1.25;84.48;98985.59;5107304;28;20036;-72
2022/12/22 03:39:59;;;;;;;33.40;19.58;;;;;;;-1.21;84.44;98987.25;5106917;28;20035;-72
2022/12/22 03:47:57;;;;;;;30.95;19.17;;;;;;;-4.00;84.45;98521.88;5107161;28;20044;-71
2022/12/22 03:50:24;;;;;;;34.63;19.38;;;;;;;-4.51;84.17;98458.56;5108587;28;20195;-72
2022/12/22 03:52:50;;;;;;;36.85;19.17;;;;;;;-4.18;84.32;98522.06;5107204;28;20051;-72
2022/12/22 03:55:17;;;;;;;28.95;17.80;;;;;;;-0.89;84.72;99042.31;5107266;28;20302;-71
2022/12/22 03:57:44;;;;;;;29.42;18.20;;;;;;;-0.89;84.62;99047.53;5107573;28;20101;-72
2022/12/22 04:00:13;;;;;;;32.10;17.83;;;;;;;-1.90;84.56;98907.59;5106755;28;20036;-72
2022/12/22 04:02:39;;;;;;;29.55;18.40;;;;;;;-0.87;84.71;99047.50;5106675;28;20047;-72
2022/12/22 04:05:09;;;;;;;30.00;18.42;;;;;;;-2.15;84.44;98828.28;5107302;28;20046;-71
2022/12/22 04:07:36;;;;;;;27.02;16.70;;;;;;;-0.92;84.62;99041.50;5108245;28;20043;-72
2022/12/22 04:12:54;;;;;;;29.90;18.45;;;;;;;-0.95;84.82;99037.22;5107907;28;20040;-71
2022/12/22 04:15:22;;;;;;;33.22;21.35;;;;;;;-2.19;84.47;98835.25;5106822;28;20046;-71
2022/12/22 04:17:49;;;;;;;31.85;18.90;;;;;;;-4.13;84.48;98515.13;5091245;28;20032;-72
2022/12/22 04:20:17;;;;;;;30.60;19.38;;;;;;;-2.40;84.71;98809.53;5109567;28;20054;-72
2022/12/22 04:22:44;;;;;;;29.35;17.67;;;;;;;-0.94;85.02;99051.06;5108177;28;20043;-72
2022/12/22 04:25:11;;;;;;;30.83;18.95;;;;;;;-0.94;84.91;99059.75;5107750;28;20043;-71
2022/12/22 04:27:38;;;;;;;32.63;19.13;;;;;;;-0.93;84.83;99053.66;5108200;28;20048;-71
2022/12/22 04:30:08;;;;;;;29.40;17.17;;;;;;;-0.91;84.80;99053.63;5089531;28;20044;-70
2022/12/22 04:32:35;;;;;;;34.58;19.80;;;;;;;-0.90;84.84;99053.63;5106855;28;20242;-71
2022/12/22 04:35:02;;;;;;;32.70;20.33;;;;;;;-0.89;84.66;99041.47;5107627;28;20040;-71
2022/12/22 04:37:30;;;;;;;29.15;18.60;;;;;;;-0.90;84.71;99038.00;5107074;28;20078;-71
2022/12/22 04:39:58;;;;;;;30.15;17.75;;;;;;;-4.15;84.41;98487.53;5109321;28;20036;-72
2022/12/22 04:42:26;;;;;;;30.10;19.10;;;;;;;-0.92;84.90;99034.56;5112222;28;20047;-72
2022/12/22 04:44:53;;;;;;;29.52;18.55;;;;;;;-2.77;84.74;98718.31;5112637;28;20043;-72
2022/12/22 04:47:20;;;;;;;32.17;18.63;;;;;;;-0.93;84.85;99027.63;5111211;28;20039;-72
2022/12/22 04:49:47;;;;;;;31.08;17.10;;;;;;;-2.60;84.70;98775.19;5111846;28;20048;-71
2022/12/22 04:52:14;;;;;;;31.58;17.13;;;;;;;-0.95;84.99;99044.16;5111340;28;20040;-71
2022/12/22 04:54:42;;;;;;;32.60;17.45;;;;;;;-0.95;84.96;99044.16;5111800;28;20052;-71
2022/12/22 04:57:08;;;;;;;25.92;16.38;;;;;;;-4.03;84.47;98710.00;5111552;28;20085;-71
2022/12/22 04:59:36;;;;;;;31.48;18.30;;;;;;;-0.96;85.00;99035.50;5111532;28;20044;-72
2022/12/22 05:02:04;;;;;;;29.10;17.58;;;;;;;-0.94;84.81;99038.06;5110488;28;20040;-72
2022/12/22 05:04:31;;;;;;;31.73;18.73;;;;;;;-11.26;83.72;97360.59;5111395;28;20097;-70
2022/12/22 05:06:58;;;;;;;30.48;19.17;;;;;;;-0.93;84.78;99039.78;5110152;28;20051;-71
2022/12/22 05:09:25;;;;;;;28.05;16.65;;;;;;;-0.95;84.80;99038.94;5111517;28;20284;-71
2022/12/22 05:11:53;;;;;;;31.67;19.45;;;;;;;-0.95;84.94;99033.75;5111973;28;20032;-71
2022/12/22 05:14:20;;;;;;;30.52;18.52;;;;;;;-0.95;84.86;99036.34;5112146;28;20048;-71
2022/12/22 05:16:47;;;;;;;31.60;18.48;;;;;;;-1.72;84.69;98902.16;5110845;28;20031;-71
2022/12/22 05:19:13;;;;;;;30.80;17.50;;;;;;;-0.92;84.77;99036.31;5111147;28;20078;-72
2022/12/22 05:21:40;;;;;;;30.15;19.23;;;;;;;-0.93;84.84;99039.78;5094800;28;20040;-71
2022/12/22 05:24:07;;;;;;;33.15;18.48;;;;;;;-0.94;84.83;99030.25;5110314;28;20036;-72
2022/12/22 05:26:34;;;;;;;32.50;19.60;;;;;;;-0.96;84.96;99030.28;5110438;28;20204;-71
2022/12/22 05:29:02;;;;;;;30.88;18.77;;;;;;;-0.99;85.02;99040.72;5110613;28;20052;-70
2022/12/22 05:31:29;;;;;;;30.00;18.52;;;;;;;-1.03;85.00;99026.00;5109417;28;20055;-71
2022/12/22 05:33:56;;;;;;;33.30;19.30;;;;;;;-1.03;85.13;99034.69;5110087;28;20052;-72
2022/12/22 05:36:22;;;;;;;32.05;19.60;;;;;;;-1.05;85.12;99039.03;5110041;28;20040;-71
2022/12/22 05:38:49;;;;;;;32.15;19.15;;;;;;;-1.08;85.36;99041.69;5108877;28;20040;-70
2022/12/22 05:41:16;;;;;;;30.50;18.33;;;;;;;-1.08;85.37;99038.22;5109956;28;20097;-70
2022/12/22 05:43:43;;;;;;;25.90;17.13;;;;;;;-1.09;85.44;99033.91;5110218;28;20081;-70
2022/12/22 05:46:11;;;;;;;30.02;17.77;;;;;;;-1.10;85.28;99045.19;5108760;28;20093;-70
2022/12/22 05:48:39;;;;;;;31.55;17.58;;;;;;;-1.11;85.60;99033.06;5109844;28;20039;-70
2022/12/22 05:51:06;;;;;;;32.30;18.73;;;;;;;-1.10;85.44;99039.97;5109350;28;20040;-70
2022/12/22 05:53:33;;;;;;;29.70;17.75;;;;;;;-1.14;85.51;99035.69;5107611;28;20044;-70
2022/12/22 05:56:00;;;;;;;29.67;18.25;;;;;;;-1.30;85.60;99006.44;5109652;28;20052;-70
2022/12/22 05:58:27;;;;;;;31.88;16.85;;;;;;;-1.15;85.45;99045.25;5109671;28;20182;-70
2022/12/22 06:00:57;;;;;;;29.10;17.25;;;;;;;-2.11;85.24;98892.28;5108546;28;20044;-69
2022/12/22 06:03:25;;;;;;;28.17;18.23;;;;;;;-1.15;85.48;99040.03;5108528;28;20308;-70
2022/12/22 06:05:53;;;;;;;28.05;16.80;;;;;;;-1.77;85.52;98937.75;5107884;28;20059;-69
2022/12/22 06:08:19;;;;;;;32.75;18.02;;;;;;;-1.17;85.59;99041.81;5108635;28;20043;-69
2022/12/22 06:10:46;;;;;;;27.27;17.73;;;;;;;-1.37;85.65;99012.59;5108538;28;20082;-69
2022/12/22 06:13:13;;;;;;;29.15;16.40;;;;;;;-1.15;85.71;99037.44;5109126;28;20280;-70
2022/12/22 06:15:40;;;;;;;31.50;17.65;;;;;;;-1.15;85.84;99044.38;5091696;28;20062;-70
2022/12/22 06:18:07;;;;;;;32.78;20.45;;;;;;;-1.17;85.67;99047.00;5109303;28;20047;-70
2022/12/22 06:20:35;;;;;;;31.42;17.77;;;;;;;-1.18;85.65;99042.69;5108156;28;20043;-70
2022/12/22 06:23:02;;;;;;;31.67;17.92;;;;;;;-1.20;85.84;99046.19;5109349;28;20044;-70
2022/12/22 06:25:29;;;;;;;34.08;17.90;;;;;;;-1.22;86.00;99046.22;5108200;28;20227;-70
2022/12/22 06:27:56;;;;;;;29.88;18.50;;;;;;;-1.21;86.04;99041.88;5091454;28;20073;-70
2022/12/22 06:30:23;;;;;;;32.47;19.02;;;;;;;-1.23;85.98;99041.88;5108077;28;20047;-70
2022/12/22 06:32:49;;;;;;;30.13;17.52;;;;;;;-1.25;86.13;99050.59;5107816;28;20062;-70
2022/12/22 06:35:16;;;;;;;26.48;17.05;;;;;;;-1.51;86.32;99006.72;5109252;28;20044;-70
2022/12/22 06:37:45;;;;;;;29.10;17.38;;;;;;;-1.27;86.12;99039.34;5109033;28;20047;-70
2022/12/22 06:40:12;;;;;;;28.15;16.02;;;;;;;-1.28;86.32;99041.09;5107380;28;20048;-70
2022/12/22 06:45:23;;;;;;;27.55;17.20;;;;;;;-1.29;86.25;99046.31;5108668;28;20107;-70
2022/12/22 06:47:50;;;;;;;31.63;16.65;;;;;;;-1.32;86.54;99047.19;5108199;28;20036;-70
2022/12/22 06:50:16;;;;;;;31.60;17.70;;;;;;;-1.32;86.34;99036.81;5108826;28;20169;-70
2022/12/22 06:52:45;;;;;;;27.88;15.85;;;;;;;-1.34;86.67;99038.56;5108585;28;20055;-70
2022/12/22 06:55:12;;;;;;;30.30;18.40;;;;;;;-1.38;86.72;99029.06;5108331;28;20050;-70
2022/12/22 06:57:38;;;;;;;35.40;16.77;;;;;;;-1.46;86.99;99016.19;5108427;28;20093;-70
2022/12/22 07:00:06;;;;;;;34.20;16.35;;;;;;;-1.51;87.05;99017.09;5107327;28;20074;-70
2022/12/22 07:02:33;;;;;;;33.50;16.88;;;;;;;-1.53;87.22;99021.47;5108197;28;20040;-70
2022/12/22 07:05:00;;;;;;;32.83;17.25;;;;;;;-1.52;87.17;99029.25;5108445;28;20044;-71
2022/12/22 07:07:26;;;;;;;28.75;16.15;;;;;;;-1.49;87.23;99025.75;5108284;28;20054;-71
2022/12/22 07:09:55;;;;;;;32.15;18.10;;;;;;;-1.45;87.13;99024.84;5108002;28;20107;-71
2022/12/22 07:12:22;;;;;;;31.10;16.65;;;;;;;-1.59;87.33;99001.59;5107583;28;20059;-71
2022/12/22 07:14:48;;;;;;;34.70;18.60;;;;;;;-1.45;87.12;99023.09;5107216;28;20097;-71
2022/12/22 07:17:15;;;;;;;37.30;18.00;;;;;;;-1.43;87.22;99018.72;5107738;28;20044;-71
2022/12/22 07:19:42;;;;;;;31.35;18.27;;;;;;;-1.39;87.00;99020.41;5107205;28;20186;-70
2022/12/22 07:22:09;;;;;;;29.00;15.90;;;;;;;-1.36;87.00;99022.97;5107170;28;20051;-71
2022/12/22 07:24:36;;;;;;;33.55;17.67;;;;;;;-1.36;86.98;99024.72;5107622;28;20051;-71
2022/12/22 07:27:04;;;;;;;29.60;17.25;;;;;;;-1.37;87.11;99029.06;5107511;28;20032;-71
2022/12/22 07:29:31;;;;;;;32.53;17.85;;;;;;;-1.37;87.12;99026.47;5107617;28;20048;-71
2022/12/22 07:31:58;;;;;;;28.90;17.70;;;;;;;-1.37;87.00;99030.78;5107656;28;20062;-71
2022/12/22 07:34:24;;;;;;;36.28;19.98;;;;;;;-1.40;86.92;99025.63;5108339;28;20042;-71
2022/12/22 07:36:51;;;;;;;35.65;19.23;;;;;;;-1.42;87.14;99030.84;5107052;28;20044;-71
2022/12/22 07:39:18;;;;;;;33.95;19.85;;;;;;;-1.41;87.10;99029.13;5107602;28;20311;-70
2022/12/22 07:44:30;;;;;;;29.55;18.17;;;;;;;-1.42;87.32;99030.00;5107443;28;20040;-70
2022/12/22 07:46:57;;;;;;;32.17;18.38;;;;;;;-1.44;87.42;99021.34;5107808;28;20040;-70
2022/12/22 07:52:08;;;;;;;34.60;18.77;;;;;;;-1.44;87.51;99029.16;5107299;28;20055;-70
2022/12/22 07:54:35;;;;;;;30.95;16.85;;;;;;;-2.07;87.75;98948.47;5107536;28;20226;-70
2022/12/22 07:57:02;;;;;;;34.85;19.30;;;;;;;-1.42;87.53;99022.19;5106933;28;20061;-71
2022/12/22 07:59:30;;;;;;;36.17;19.15;;;;;;;-1.36;87.45;99024.72;5107343;28;20054;-71
2022/12/22 08:01:57;;;;;;;37.97;21.05;;;;;;;-1.34;87.19;99029.03;5106746;28;20288;-71
2022/12/22 08:04:24;;;;;;;35.88;20.02;;;;;;;-1.31;87.16;99030.72;5107469;28;20300;-70
2022/12/22 08:06:51;;;;;;;35.47;20.00;;;;;;;-1.27;87.21;99045.41;5107380;28;20066;-71
2022/12/22 08:09:20;;;;;;;33.33;18.38;;;;;;;-1.30;87.24;99050.63;5107147;28;20036;-71
2022/12/22 08:11:47;;;;;;;37.60;19.90;;;;;;;-1.52;87.25;99002.41;5108035;28;20081;-71
2022/12/22 08:14:14;;;;;;;42.75;21.20;;;;;;;-1.28;87.25;99030.69;5106881;28;20047;-71
2022/12/22 08:16:42;;;;;;;37.55;20.17;;;;;;;-1.30;87.29;99027.25;5109888;28;20036;-71
2022/12/22 08:19:09;;;;;;;33.33;20.05;;;;;;;-1.30;87.15;99044.59;5112569;28;20040;-71
2022/12/22 08:21:36;;;;;;;34.53;18.58;;;;;;;-1.30;87.18;99032.44;5111515;28;20052;-70
2022/12/22 08:24:03;;;;;;;34.08;18.73;;;;;;;-1.26;87.14;99039.31;5112194;28;20044;-70
2022/12/22 08:26:35;;;;;;;34.65;20.98;;;;;;;-1.28;87.20;99024.63;5111128;28;20048;-70
2022/12/22 08:29:06;;;;;;;33.92;18.95;;;;;;;-1.27;87.34;99036.75;5112502;28;20073;-71
2022/12/22 08:31:33;;;;;;;39.83;18.75;;;;;;;-1.26;87.24;99041.06;5110971;28;20048;-71
2022/12/22 08:34:04;;;;;;;35.60;18.90;;;;;;;-1.24;87.24;99044.50;5111970;28;20036;-70
2022/12/22 08:36:34;;;;;;;34.67;20.17;;;;;;;-1.21;87.10;99047.06;5111459;28;20342;-70
2022/12/22 08:39:02;;;;;;;36.90;19.67;;;;;;;-1.22;87.12;99059.22;5112235;28;20089;-71
2022/12/22 08:44:15;;;;;;;33.50;20.58;;;;;;;-1.24;87.28;99041.91;5110891;28;20050;-71
2022/12/22 08:46:42;;;;;;;35.83;19.45;;;;;;;-1.23;87.30;99044.47;5110647;28;20043;-71
2022/12/22 08:49:10;;;;;;;34.95;20.58;;;;;;;-2.11;87.08;98926.88;5111614;28;20223;-71
2022/12/22 08:51:37;;;;;;;32.30;19.35;;;;;;;-1.22;86.81;99047.94;5111536;28;20046;-71
2022/12/22 08:54:04;;;;;;;34.15;19.45;;;;;;;-1.22;87.03;99041.00;5093542;28;20040;-71
2022/12/22 08:56:31;;;;;;;37.92;25.05;;;;;;;-1.19;86.90;99037.50;5110330;28;20036;-71
2022/12/22 08:58:58;;;;;;;33.55;18.35;;;;;;;-1.16;87.01;99037.47;5111407;28;20165;-71
2022/12/22 09:01:24;;;;;;;39.38;20.73;;;;;;;-1.15;86.95;99031.38;5093796;28;20177;-71
2022/12/22 09:03:53;;;;;;;33.67;19.27;;;;;;;-1.13;86.72;99045.22;5111004;28;20040;-71
2022/12/22 09:06:23;;;;;;;37.78;21.63;;;;;;;-1.09;86.94;99052.09;5111289;28;20231;-70
2022/12/22 09:08:54;;;;;;;31.85;17.67;;;;;;;-1.06;86.87;99052.06;5110897;28;20054;-71
2022/12/22 09:11:20;;;;;;;32.25;19.92;;;;;;;-1.32;86.69;99003.88;5110922;28;20058;-70
2022/12/22 09:13:47;;;;;;;34.70;18.70;;;;;;;-1.05;86.59;99033.84;5110732;28;20035;-71
2022/12/22 09:16:16;;;;;;;33.42;18.90;;;;;;;-16.66;84.69;96425.59;5110589;28;20318;-72
2022/12/22 09:18:43;;;;;;;34.30;19.42;;;;;;;-1.04;86.72;99032.97;5110197;28;20123;-71
2022/12/22 09:21:10;;;;;;;33.97;19.50;;;;;;;-0.98;86.50;99025.97;5110238;28;20036;-71
2022/12/22 09:23:38;;;;;;;36.42;22.42;;;;;;;-0.99;86.39;99040.72;5109502;28;20040;-71
2022/12/22 09:26:08;;;;;;;38.08;20.58;;;;;;;-0.98;86.52;99044.19;5110238;28;20036;-71
2022/12/22 09:28:36;;;;;;;42.20;23.02;;;;;;;-0.97;86.38;99035.50;5109695;28;20125;-71
2022/12/22 09:31:03;;;;;;;38.58;21.38;;;;;;;-0.97;86.52;99033.78;5110070;28;20315;-71
2022/12/22 09:33:30;;;;;;;34.80;21.05;;;;;;;-0.98;86.49;99020.78;5092699;28;20101;-71
2022/12/22 09:35:57;;;;;;;40.17;19.42;;;;;;;-0.97;86.58;99001.69;5109668;28;20044;-71
2022/12/22 09:38:26;;;;;;;37.60;21.63;;;;;;;-1.19;86.51;98964.69;5108708;28;20036;-72
2022/12/22 09:40:56;;;;;;;40.00;21.02;;;;;;;-1.19;86.70;98949.09;5109832;28;20246;-71
2022/12/22 09:43:28;;;;;;;35.25;19.38;;;;;;;-1.01;86.92;98977.44;5109926;28;20067;-71
2022/12/22 09:45:56;;;;;;;33.92;18.42;;;;;;;-0.98;86.91;98980.03;5109078;28;20048;-71
2022/12/22 09:48:23;;;;;;;42.85;22.80;;;;;;;-0.96;86.77;98978.25;5109124;28;20077;-71
2022/12/22 09:50:50;;;;;;;34.85;20.73;;;;;;;-0.94;86.95;98983.44;5110030;28;20050;-71
2022/12/22 09:53:21;;;;;;;37.58;21.67;;;;;;;-0.92;86.89;98974.72;5109159;28;20043;-71
2022/12/22 09:55:49;;;;;;;38.17;19.92;;;;;;;-0.91;86.87;98975.59;5108665;28;20052;-71
2022/12/22 09:58:25;;;;;;;36.15;19.27;;;;;;;-2.09;86.68;98769.34;5109744;28;20292;-71
2022/12/22 10:01:00;;;;;;;38.85;21.15;;;;;;;-0.92;87.06;98953.06;5108568;28;20050;-71
2022/12/22 10:03:34;;;;;;;35.22;21.55;;;;;;;-0.90;87.10;98946.09;5109518;28;20382;-71
2022/12/22 10:06:08;;;;;;;38.78;22.13;;;;;;;-0.91;87.20;98936.56;5110047;28;20052;-70
2022/12/22 10:08:39;;;;;;;40.20;20.52;;;;;;;-0.90;87.38;98930.47;5109712;28;20036;-71
2022/12/22 10:11:07;;;;;;;39.25;18.95;;;;;;;-0.86;87.35;98942.56;5108338;28;20048;-71
2022/12/22 10:13:35;;;;;;;31.00;20.13;;;;;;;-0.82;87.22;98939.03;5108111;28;20046;-70
2022/12/22 10:16:15;;;;;;;33.38;20.10;;;;;;;-0.99;87.12;98900.28;5108328;28;20066;-71
2022/12/22 10:18:55;;;;;;;42.53;21.48;;;;;;;-0.83;87.16;98934.69;5108166;28;20044;-70
2022/12/22 10:21:23;;;;;;;34.33;18.70;;;;;;;-0.84;87.32;98932.97;5107888;28;20039;-71
2022/12/22 10:23:50;;;;;;;33.60;19.95;;;;;;;-0.86;87.46;98926.94;5109507;28;20054;-71
2022/12/22 10:26:21;;;;;;;39.22;19.73;;;;;;;-0.84;87.44;98922.56;5108111;28;20040;-70
2022/12/22 10:28:53;;;;;;;33.88;18.15;;;;;;;-1.45;87.33;98827.28;5108925;28;20055;-71
2022/12/22 10:31:22;;;;;;;35.88;19.55;;;;;;;-0.78;87.30;98938.94;5108165;28;20222;-71
2022/12/22 10:33:51;;;;;;;34.00;19.08;;;;;;;-0.77;87.40;98938.06;5107996;28;20226;-72
2022/12/22 10:36:23;;;;;;;32.25;18.65;;;;;;;-0.78;87.33;98930.28;5108080;28;20108;-71
2022/12/22 10:38:57;;;;;;;27.83;17.08;;;;;;;-0.75;87.46;98940.63;5107839;28;20040;-71
2022/12/22 10:41:27;;;;;;;31.83;19.05;;;;;;;-0.75;87.33;98941.50;5108026;28;20363;-71
2022/12/22 10:43:58;;;;;;;28.95;16.52;;;;;;;-0.72;87.43;98938.00;5108510;28;20211;-71
2022/12/22 10:46:35;;;;;;;28.90;16.90;;;;;;;-0.69;87.19;98945.75;5108206;28;20051;-71
2022/12/22 10:49:16;;;;;;;29.95;16.83;;;;;;;-0.66;87.22;98970.84;5090853;28;20089;-71
2022/12/22 10:51:45;;;;;;;28.30;17.88;;;;;;;-0.72;87.60;98946.66;5107248;28;20046;-71
2022/12/22 10:54:25;;;;;;;27.42;16.25;;;;;;;-0.71;87.42;98903.28;5108389;28;20052;-70
2022/12/22 10:57:00;;;;;;;29.38;17.23;;;;;;;-0.69;87.43;98924.94;5107975;28;20036;-71
2022/12/22 10:59:29;;;;;;;26.75;16.63;;;;;;;-0.68;87.49;98914.50;5107205;28;20062;-71
2022/12/22 11:02:27;;;;;;;28.45;15.60;;;;;;;-0.65;87.30;98908.38;5108399;28;20191;-71
2022/12/22 11:04:55;;;;;;;29.98;16.77;;;;;;;-0.62;87.19;98895.31;5108022;28;20052;-71
2022/12/22 11:07:23;;;;;;;25.30;15.30;;;;;;;-0.60;87.07;98893.53;5108283;28;20296;-71
2022/12/22 11:09:50;;;;;;;28.63;15.02;;;;;;;-0.60;87.04;98877.06;5107523;28;20040;-71
2022/12/22 11:12:26;;;;;;;27.83;15.85;;;;;;;-1.54;86.85;98729.53;5107998;28;20059;-71
2022/12/22 11:15:00;;;;;;;30.25;16.92;;;;;;;-0.85;87.07;98825.44;5108977;28;20263;-71
2022/12/22 11:17:36;;;;;;;28.02;16.15;;;;;;;-0.83;87.03;98848.84;5108961;28;20070;-71
2022/12/22 11:20:30;;;;;;;27.52;16.23;;;;;;;-0.56;87.32;98874.38;5108990;28;20105;-71
2022/12/22 11:23:03;;;;;;;27.30;15.93;;;;;;;-0.58;87.39;98878.75;5108479;28;20070;-70
2022/12/22 11:25:40;;;;;;;28.38;19.27;;;;;;;-0.56;87.43;98848.34;5108997;28;20046;-71
2022/12/22 11:28:33;;;;;;;28.05;16.95;;;;;;;-0.54;87.42;98849.19;5107877;28;20064;-71
2022/12/22 11:31:15;;;;;;;28.42;16.55;;;;;;;-0.53;87.30;98842.22;5108685;28;20060;-71
2022/12/22 11:33:53;;;;;;;25.40;15.32;;;;;;;-0.52;87.30;98842.19;5108205;28;20255;-71
2022/12/22 11:36:27;;;;;;;29.73;15.95;;;;;;;-0.53;87.34;98832.66;5108051;28;20051;-70
2022/12/22 11:39:01;;;;;;;27.05;15.90;;;;;;;-0.53;87.20;98826.59;5108154;28;20048;-71
2022/12/22 11:41:42;;;;;;;31.90;17.87;;;;;;;-0.54;87.38;98832.69;5107348;28;20040;-71
2022/12/22 11:44:41;;;;;;;29.58;18.52;;;;;;;-0.51;87.46;98836.09;5106784;28;20048;-71
2022/12/22 11:47:20;;;;;;;31.45;18.75;;;;;;;-0.54;87.46;98823.16;5107321;28;20082;-71
2022/12/22 11:50:29;;;;;;;31.35;17.00;;;;;;;-0.53;87.52;98830.06;5106490;28;20308;-71
2022/12/22 11:53:07;;;;;;;32.03;18.83;;;;;;;-0.52;87.47;98830.94;5045603;28;20045;-71
2022/12/22 11:55:40;;;;;;;34.15;19.63;;;;;;;-0.48;87.41;98823.03;5029846;28;20049;-70
2022/12/22 11:58:32;;;;;;;30.88;18.67;;;;;;;-0.44;87.33;98819.47;5084899;28;20243;-71
2022/12/22 12:01:20;;;;;;;34.88;19.80;;;;;;;-0.46;87.34;98809.97;5107469;28;20044;-71
2022/12/22 12:04:25;;;;;;;34.42;18.17;;;;;;;-0.46;87.56;98813.44;5107908;28;20044;-71
2022/12/22 12:07:15;;;;;;;31.52;18.25;;;;;;;-0.43;87.48;98812.53;5089487;28;20108;-71
2022/12/22 12:09:53;;;;;;;33.25;19.50;;;;;;;-0.43;87.73;98802.97;5107572;28;20070;-71
2022/12/22 12:12:27;;;;;;;33.35;18.20;;;;;;;-0.42;87.68;98802.06;5107721;28;20056;-71
2022/12/22 12:15:07;;;;;;;34.72;20.92;;;;;;;-0.39;87.51;98806.38;5106764;28;20082;-71
2022/12/22 12:17:49;;;;;;;31.58;19.00;;;;;;;-0.96;87.54;98707.72;5105883;28;20366;-71
2022/12/22 12:20:46;;;;;;;35.13;20.83;;;;;;;-0.33;87.75;98787.16;5105736;28;20043;-71
2022/12/22 12:23:39;;;;;;;34.80;19.25;;;;;;;-0.33;87.61;98785.41;5104106;28;20304;-70
2022/12/22 12:26:15;;;;;;;34.42;20.52;;;;;;;-0.32;87.74;98776.72;5106931;28;20058;-71
2022/12/22 12:28:50;;;;;;;34.35;21.88;;;;;;;-0.31;87.78;98770.63;5106836;28;20051;-72
2022/12/22 12:31:21;;;;;;;36.22;19.15;;;;;;;-3.66;87.10;98203.84;5106958;28;20062;-72
2022/12/22 12:33:52;;;;;;;39.60;20.90;;;;;;;-0.26;87.69;98771.38;5107153;28;20048;-72
2022/12/22 12:36:24;;;;;;;36.25;21.13;;;;;;;-0.26;87.71;98778.34;5105665;28;20307;-71
2022/12/22 12:39:02;;;;;;;31.15;17.80;;;;;;;-0.25;87.63;98756.59;5107271;28;20200;-71
2022/12/22 12:41:38;;;;;;;37.75;21.83;;;;;;;-0.22;87.72;98766.97;5106457;28;20039;-71
2022/12/22 12:44:06;;;;;;;34.55;19.45;;;;;;;-0.19;87.89;98764.28;5106808;28;20058;-72
2022/12/22 12:47:07;;;;;;;32.17;20.23;;;;;;;-0.16;87.86;98762.47;5107277;28;20044;-71
2022/12/22 12:50:03;;;;;;;32.22;19.80;;;;;;;-0.15;87.88;98766.81;5074800;28;20316;-71
2022/12/22 12:53:13;;;;;;;30.08;18.50;;;;;;;-0.15;87.92;98755.53;5107236;28;20296;-71
2022/12/22 12:56:08;;;;;;;32.95;19.85;;;;;;;-1.07;88.18;98603.88;5107061;28;20051;-72
2022/12/22 12:58:56;;;;;;;38.90;22.23;;;;;;;-0.12;88.17;98750.25;5060386;28;20044;-71
2022/12/22 13:01:59;;;;;;;30.20;19.17;;;;;;;-0.09;88.29;98747.56;5105995;28;20237;-72
2022/12/22 13:05:11;;;;;;;36.05;20.90;;;;;;;-0.09;88.24;98745.81;5110751;28;20044;-72
2022/12/22 13:08:08;;;;;;;31.13;19.42;;;;;;;-0.06;88.33;98742.31;5110753;28;20238;-72
2022/12/22 13:10:40;;;;;;;34.75;19.25;;;;;;;-0.04;88.22;98737.91;5110003;28;20032;-72
2022/12/22 13:13:11;;;;;;;32.65;18.65;;;;;;;-0.01;88.18;98732.63;5109844;28;20048;-72
2022/12/22 13:15:39;;;;;;;29.42;18.25;;;;;;;0.03;88.10;98717.78;5109152;28;20300;-72
2022/12/22 13:18:31;;;;;;;30.52;17.20;;;;;;;0.04;88.08;98717.75;5110552;28;20063;-72
2022/12/22 13:21:01;;;;;;;34.95;18.33;;;;;;;-0.15;88.08;98687.81;5093334;28;20062;-72
2022/12/22 13:23:34;;;;;;;30.52;16.85;;;;;;;0.09;88.16;98718.50;5109571;28;20047;-72
2022/12/22 13:26:07;;;;;;;32.20;18.50;;;;;;;0.10;88.30;98706.34;5110100;28;20052;-72
2022/12/22 13:28:37;;;;;;;33.55;19.45;;;;;;;0.10;88.11;98712.41;5109947;28;20235;-72
2022/12/22 13:31:12;;;;;;;31.77;20.55;;;;;;;0.12;88.26;98723.66;5110355;28;20127;-72
2022/12/22 13:33:43;;;;;;;29.05;18.23;;;;;;;0.15;88.49;98718.38;5109333;28;20055;-72
2022/12/22 13:36:19;;;;;;;36.40;21.95;;;;;;;0.17;88.61;98737.41;5109318;28;20036;-72
2022/12/22 13:38:48;;;;;;;35.78;20.45;;;;;;;-0.05;88.25;98671.06;5109636;28;20047;-73
2022/12/22 13:41:17;;;;;;;33.03;20.55;;;;;;;-0.34;88.37;98624.00;5108680;28;20039;-72
2022/12/22 13:43:53;;;;;;;33.67;20.10;;;;;;;0.27;88.32;98720.69;5108260;28;20032;-72
2022/12/22 13:46:20;;;;;;;34.30;19.23;;;;;;;0.28;88.33;98714.56;5108469;28;20044;-73
2022/12/22 13:48:49;;;;;;;33.05;21.55;;;;;;;0.33;88.52;98730.09;5108605;28;20039;-72
2022/12/22 13:51:20;;;;;;;43.78;23.58;;;;;;;0.36;88.40;98722.22;5110113;28;20044;-72
2022/12/22 13:53:50;;;;;;;38.03;21.80;;;;;;;0.39;88.43;98722.13;5109875;28;20060;-71
2022/12/22 13:56:22;;;;;;;43.03;23.20;;;;;;;0.33;88.58;98705.78;5109116;28;20047;-72
2022/12/22 13:58:57;;;;;;;34.65;20.33;;;;;;;0.46;88.44;98722.84;5108232;28;20043;-72
2022/12/22 14:01:25;;;;;;;41.13;25.20;;;;;;;-0.64;88.42;98550.09;5109382;28;20055;-72
2022/12/22 14:03:56;;;;;;;41.08;21.70;;;;;;;0.48;88.42;98731.47;5107428;28;20186;-72
2022/12/22 14:06:28;;;;;;;39.20;22.20;;;;;;;-0.06;88.52;98659.81;5108311;28;20226;-72
2022/12/22 14:08:54;;;;;;;35.78;21.65;;;;;;;0.51;88.55;98719.22;5109686;28;20057;-74
2022/12/22 14:11:21;;;;;;;40.20;24.33;;;;;;;0.52;88.77;98723.53;5108857;28;20050;-72
2022/12/22 14:13:52;;;;;;;42.90;23.80;;;;;;;0.55;88.51;98720.00;5107329;28;20036;-72
2022/12/22 14:16:19;;;;;;;38.35;23.23;;;;;;;0.58;88.71;98726.00;5108592;28;20059;-73
2022/12/22 14:18:46;;;;;;;36.20;20.73;;;;;;;0.56;88.64;98716.50;5108049;28;20036;-73
2022/12/22 14:21:13;;;;;;;43.85;25.38;;;;;;;0.02;88.46;98628.34;5107986;28;20040;-73
2022/12/22 14:23:42;;;;;;;42.55;25.40;;;;;;;0.63;88.40;98715.47;5108017;28;20071;-74
2022/12/22 14:26:17;;;;;;;39.95;24.33;;;;;;;0.64;88.65;98750.22;5108750;28;20050;-73
2022/12/22 14:28:49;;;;;;;;;;;;;;;0.61;88.94;98722.47;5109718;28;20051;-74
2022/12/22 14:31:18;;;;;;;37.90;25.60;;;;;;;0.40;88.55;98699.53;5109039;28;19915;-74
2022/12/22 14:33:53;;;;;;;44.35;24.83;;;;;;;0.62;88.56;98732.00;5108911;28;20052;-74
2022/12/22 14:36:22;;;;;;;;;;;;;;;0.59;88.93;98732.06;5108568;28;20055;-74
2022/12/22 14:38:51;;;;;;;42.08;24.73;;;;;;;0.03;89.00;98666.53;5107432;28;19952;-73
2022/12/22 14:41:45;;;;;;;36.30;23.08;;;;;;;0.63;88.77;98717.22;5106692;28;20043;-73
2022/12/22 14:44:18;;;;;;;45.95;23.50;;;;;;;0.65;88.68;98723.25;5091052;28;20048;-74
2022/12/22 14:47:06;;;;;;;43.03;24.40;;;;;;;0.48;88.60;98680.19;5107517;28;20047;-74
2022/12/22 14:49:35;;;;;;;43.45;24.60;;;;;;;0.68;88.54;98710.97;5106892;28;20040;-74
2022/12/22 14:52:15;;;;;;;43.20;26.50;;;;;;;0.67;88.41;98706.66;5107582;28;20040;-73
2022/12/22 14:54:47;;;;;;;39.03;26.23;;;;;;;0.69;88.39;98697.03;5107965;28;20043;-72
2022/12/22 14:57:18;;;;;;;48.03;26.02;;;;;;;0.71;88.42;98691.78;5107610;28;20052;-73
2022/12/22 15:00:02;;;;;;;44.20;26.42;;;;;;;0.73;88.27;98685.63;5109230;28;20336;-74
2022/12/22 15:02:33;;;;;;;42.03;25.02;;;;;;;0.35;88.31;98611.00;5109446;28;20207;-74
2022/12/22 15:05:09;;;;;;;37.83;23.63;;;;;;;0.75;88.30;98680.38;5107988;28;20076;-74
2022/12/22 15:07:44;;;;;;;41.42;24.42;;;;;;;0.75;88.35;98689.06;5106212;28;20066;-73
2022/12/22 15:10:11;;;;;;;39.85;25.20;;;;;;;0.09;88.24;98589.97;5107366;28;20054;-73
2022/12/22 15:12:38;;;;;;;43.97;24.92;;;;;;;0.78;88.41;98709.00;5109170;28;20050;-73
2022/12/22 15:15:12;;;;;;;39.28;24.67;;;;;;;0.79;88.37;98698.50;5108635;28;20040;-74
2022/12/22 15:17:43;;;;;;;43.88;26.90;;;;;;;0.79;88.29;98705.47;5107402;28;20051;-74
2022/12/22 15:20:15;;;;;;;39.25;23.88;;;;;;;0.79;88.45;98715.91;5108263;28;20036;-74
2022/12/22 15:22:42;;;;;;;42.33;24.15;;;;;;;0.79;88.35;98716.78;5090873;28;20124;-74
2022/12/22 15:25:13;;;;;;;44.83;26.85;;;;;;;0.81;88.52;98714.13;5108355;28;20085;-74